KRYY/RYY METAR and TAF weather

Enter ICAO airport designator
Station Type Date Time Source
KRYY METAR 2020/02/19 14:50 UTC NOAA

KRYY 191450Z 31007KT 7SM SCT007 BKN036 09/07 A3027 RMK AO2 SLP970 6//// T00890072 51009 PNO $


Station Type Date Time Source
KRYY Decoded METAR 2020/02/19 14:50 UTC NOAA

Marietta, Cobb County-McCollum Field Airport, GA, United States (KRYY) 34-00-47N 084-35-55W
Feb 19, 2020 - 09:50 AM EST / 2020.02.19 1450 UTC
Wind: from the NW (310 degrees) at 8 MPH (7 KT):0
Visibility: 7 mile(s):0
Sky conditions: mostly cloudy
Temperature: 48.0 F (8.9 C)
Dew Point: 45.0 F (7.2 C)
Relative Humidity: 89%
Pressure (altimeter): 30.27 in. Hg (1025 hPa)
Pressure tendency: 0.03 inches (0.9 hPa) higher than three hours ago
ob: KRYY 191450Z 31007KT 7SM SCT007 BKN036 09/07 A3027 RMK AO2 SLP970 6//// T00890072 51009 PNO
cycle: 15

Station Type Date Time Source
KRYY TAF 2020/02/19 12:27 UTC NOAA

TAF KRYY 191125Z 1912/2012 31004KT 6SM -SHRA BR OVC004
FM191400 33006KT P6SM VCSH OVC008
FM191600 33006KT P6SM OVC015
FM192000 03005KT P6SM OVC025
FM192300 06007KT P6SM OVC018
FM200900 08009KT P6SM -RA OVC009

Example: see airport list